sensor_id;sensor_type;location;lat;lon;timestamp;P1;durP1;ratioP1;P2;durP2;ratioP2
68583;SDS011;55557;49.220;11.150;2023-06-26T00:02:17;8.37;;;5.07;;
68583;SDS011;55557;49.220;11.150;2023-06-26T00:04:43;8.50;;;5.60;;
68583;SDS011;55557;49.220;11.150;2023-06-26T00:07:10;7.80;;;4.40;;
68583;SDS011;55557;49.220;11.150;2023-06-26T00:09:36;9.60;;;4.80;;
68583;SDS011;55557;49.220;11.150;2023-06-26T00:12:03;6.47;;;4.93;;
68583;SDS011;55557;49.220;11.150;2023-06-26T00:14:29;6.13;;;4.87;;
68583;SDS011;55557;49.220;11.150;2023-06-26T00:16:55;7.17;;;5.17;;
68583;SDS011;55557;49.220;11.150;2023-06-26T00:19:21;8.63;;;5.03;;
68583;SDS011;55557;49.220;11.150;2023-06-26T00:21:47;6.77;;;5.00;;
68583;SDS011;55557;49.220;11.150;2023-06-26T00:24:14;6.67;;;4.70;;
68583;SDS011;55557;49.220;11.150;2023-06-26T00:26:40;7.43;;;5.37;;
68583;SDS011;55557;49.220;11.150;2023-06-26T00:29:06;6.33;;;4.97;;
68583;SDS011;55557;49.220;11.150;2023-06-26T00:31:32;8.33;;;5.27;;
68583;SDS011;55557;49.220;11.150;2023-06-26T00:34:00;7.00;;;5.27;;
68583;SDS011;55557;49.220;11.150;2023-06-26T00:36:26;8.53;;;5.40;;
68583;SDS011;55557;49.220;11.150;2023-06-26T00:38:52;9.23;;;4.83;;
68583;SDS011;55557;49.220;11.150;2023-06-26T00:41:18;6.00;;;4.60;;
68583;SDS011;55557;49.220;11.150;2023-06-26T00:43:45;6.60;;;5.37;;
68583;SDS011;55557;49.220;11.150;2023-06-26T00:46:14;7.83;;;5.40;;
68583;SDS011;55557;49.220;11.150;2023-06-26T00:48:41;6.80;;;4.67;;
68583;SDS011;55557;49.220;11.150;2023-06-26T00:51:07;7.13;;;5.37;;
68583;SDS011;55557;49.220;11.150;2023-06-26T00:53:34;6.10;;;4.53;;
68583;SDS011;55557;49.220;11.150;2023-06-26T00:56:00;7.67;;;5.03;;
68583;SDS011;55557;49.220;11.150;2023-06-26T00:58:27;6.00;;;4.73;;
68583;SDS011;55557;49.220;11.150;2023-06-26T01:00:53;11.43;;;4.73;;
68583;SDS011;55557;49.220;11.150;2023-06-26T01:03:19;9.83;;;5.40;;
68583;SDS011;55557;49.220;11.150;2023-06-26T01:05:46;5.93;;;5.03;;
68583;SDS011;55557;49.220;11.150;2023-06-26T01:08:16;7.63;;;4.80;;
68583;SDS011;55557;49.220;11.150;2023-06-26T01:10:44;7.40;;;5.13;;
68583;SDS011;55557;49.220;11.150;2023-06-26T01:13:11;7.57;;;5.03;;
68583;SDS011;55557;49.220;11.150;2023-06-26T01:15:38;8.27;;;5.60;;
68583;SDS011;55557;49.220;11.150;2023-06-26T01:18:04;9.13;;;5.60;;
68583;SDS011;55557;49.220;11.150;2023-06-26T01:20:31;7.53;;;5.27;;
68583;SDS011;55557;49.220;11.150;2023-06-26T01:28:29;6.30;;;5.60;;
68583;SDS011;55557;49.220;11.150;2023-06-26T01:30:55;5.90;;;4.40;;
68583;SDS011;55557;49.220;11.150;2023-06-26T01:33:22;9.23;;;5.50;;
68583;SDS011;55557;49.220;11.150;2023-06-26T01:35:48;6.83;;;4.73;;
68583;SDS011;55557;49.220;11.150;2023-06-26T01:38:18;8.43;;;5.43;;
68583;SDS011;55557;49.220;11.150;2023-06-26T01:40:48;6.67;;;5.27;;
68583;SDS011;55557;49.220;11.150;2023-06-26T01:45:50;4.80;;;4.27;;
68583;SDS011;55557;49.220;11.150;2023-06-26T01:48:19;8.40;;;5.80;;
68583;SDS011;55557;49.220;11.150;2023-06-26T01:50:48;6.97;;;5.10;;
68583;SDS011;55557;49.220;11.150;2023-06-26T01:53:17;7.47;;;5.90;;
68583;SDS011;55557;49.220;11.150;2023-06-26T01:55:49;10.07;;;5.53;;
68583;SDS011;55557;49.220;11.150;2023-06-26T01:58:17;9.60;;;5.30;;
68583;SDS011;55557;49.220;11.150;2023-06-26T02:00:44;8.37;;;5.33;;
68583;SDS011;55557;49.220;11.150;2023-06-26T02:03:10;8.87;;;6.23;;
68583;SDS011;55557;49.220;11.150;2023-06-26T02:05:36;7.13;;;5.10;;
68583;SDS011;55557;49.220;11.150;2023-06-26T02:08:02;8.03;;;5.47;;
68583;SDS011;55557;49.220;11.150;2023-06-26T02:10:28;7.40;;;5.77;;
68583;SDS011;55557;49.220;11.150;2023-06-26T02:12:54;11.20;;;5.80;;
68583;SDS011;55557;49.220;11.150;2023-06-26T02:15:20;7.93;;;5.33;;
68583;SDS011;55557;49.220;11.150;2023-06-26T02:17:46;10.63;;;5.67;;
68583;SDS011;55557;49.220;11.150;2023-06-26T02:20:16;6.40;;;4.93;;
68583;SDS011;55557;49.220;11.150;2023-06-26T02:22:42;7.20;;;5.30;;
68583;SDS011;55557;49.220;11.150;2023-06-26T02:25:09;7.77;;;5.10;;
68583;SDS011;55557;49.220;11.150;2023-06-26T02:27:35;8.47;;;5.77;;
68583;SDS011;55557;49.220;11.150;2023-06-26T02:30:01;8.23;;;5.60;;
68583;SDS011;55557;49.220;11.150;2023-06-26T02:32:27;6.83;;;5.30;;
68583;SDS011;55557;49.220;11.150;2023-06-26T02:34:53;8.17;;;5.90;;
68583;SDS011;55557;49.220;11.150;2023-06-26T02:37:19;6.87;;;4.83;;
68583;SDS011;55557;49.220;11.150;2023-06-26T02:39:46;6.93;;;5.33;;
68583;SDS011;55557;49.220;11.150;2023-06-26T02:42:12;6.97;;;5.03;;
68583;SDS011;55557;49.220;11.150;2023-06-26T02:44:38;7.43;;;5.37;;
68583;SDS011;55557;49.220;11.150;2023-06-26T02:47:04;8.13;;;5.70;;
68583;SDS011;55557;49.220;11.150;2023-06-26T02:49:30;9.83;;;5.37;;
68583;SDS011;55557;49.220;11.150;2023-06-26T02:51:56;7.80;;;5.33;;
68583;SDS011;55557;49.220;11.150;2023-06-26T02:54:22;8.63;;;5.77;;
68583;SDS011;55557;49.220;11.150;2023-06-26T02:56:48;7.87;;;5.50;;
68583;SDS011;55557;49.220;11.150;2023-06-26T03:02:14;6.57;;;5.13;;
68583;SDS011;55557;49.220;11.150;2023-06-26T03:04:40;6.97;;;5.17;;
68583;SDS011;55557;49.220;11.150;2023-06-26T03:07:07;10.03;;;5.63;;
68583;SDS011;55557;49.220;11.150;2023-06-26T03:09:34;7.50;;;5.37;;
68583;SDS011;55557;49.220;11.150;2023-06-26T03:12:00;7.23;;;5.50;;
68583;SDS011;55557;49.220;11.150;2023-06-26T03:14:26;10.43;;;5.37;;
68583;SDS011;55557;49.220;11.150;2023-06-26T03:16:52;6.60;;;5.20;;
68583;SDS011;55557;49.220;11.150;2023-06-26T03:19:22;7.97;;;5.43;;
68583;SDS011;55557;49.220;11.150;2023-06-26T03:21:48;9.50;;;5.80;;
68583;SDS011;55557;49.220;11.150;2023-06-26T03:24:14;7.73;;;5.07;;
68583;SDS011;55557;49.220;11.150;2023-06-26T03:26:40;7.80;;;5.97;;
68583;SDS011;55557;49.220;11.150;2023-06-26T03:29:06;8.13;;;5.93;;
68583;SDS011;55557;49.220;11.150;2023-06-26T03:31:32;7.60;;;5.50;;
68583;SDS011;55557;49.220;11.150;2023-06-26T03:33:58;9.40;;;5.57;;
68583;SDS011;55557;49.220;11.150;2023-06-26T03:36:24;7.47;;;5.47;;
68583;SDS011;55557;49.220;11.150;2023-06-26T03:38:50;8.50;;;5.73;;
68583;SDS011;55557;49.220;11.150;2023-06-26T03:41:25;7.23;;;5.63;;
68583;SDS011;55557;49.220;11.150;2023-06-26T03:43:52;10.43;;;5.13;;
68583;SDS011;55557;49.220;11.150;2023-06-26T03:46:19;6.80;;;5.43;;
68583;SDS011;55557;49.220;11.150;2023-06-26T03:48:45;7.27;;;4.70;;
68583;SDS011;55557;49.220;11.150;2023-06-26T03:51:11;9.67;;;5.50;;
68583;SDS011;55557;49.220;11.150;2023-06-26T03:53:37;8.13;;;5.20;;
68583;SDS011;55557;49.220;11.150;2023-06-26T03:56:04;9.17;;;4.93;;
68583;SDS011;55557;49.220;11.150;2023-06-26T03:58:30;7.80;;;5.70;;
68583;SDS011;55557;49.220;11.150;2023-06-26T04:00:56;8.00;;;5.40;;
68583;SDS011;55557;49.220;11.150;2023-06-26T04:03:22;11.07;;;5.50;;
68583;SDS011;55557;49.220;11.150;2023-06-26T04:05:49;8.10;;;5.00;;
68583;SDS011;55557;49.220;11.150;2023-06-26T04:08:15;8.13;;;6.03;;
68583;SDS011;55557;49.220;11.150;2023-06-26T04:10:41;9.10;;;5.27;;
68583;SDS011;55557;49.220;11.150;2023-06-26T04:13:07;8.13;;;5.80;;
68583;SDS011;55557;49.220;11.150;2023-06-26T04:15:33;7.93;;;5.30;;
68583;SDS011;55557;49.220;11.150;2023-06-26T04:17:59;8.70;;;5.80;;
68583;SDS011;55557;49.220;11.150;2023-06-26T04:20:25;6.90;;;4.80;;
68583;SDS011;55557;49.220;11.150;2023-06-26T04:22:51;7.93;;;5.50;;
68583;SDS011;55557;49.220;11.150;2023-06-26T04:25:17;10.77;;;5.63;;
68583;SDS011;55557;49.220;11.150;2023-06-26T04:27:43;9.43;;;5.17;;
68583;SDS011;55557;49.220;11.150;2023-06-26T04:30:09;8.30;;;5.47;;
68583;SDS011;55557;49.220;11.150;2023-06-26T04:32:35;6.63;;;4.87;;
68583;SDS011;55557;49.220;11.150;2023-06-26T04:35:01;9.10;;;5.27;;
68583;SDS011;55557;49.220;11.150;2023-06-26T04:37:27;7.17;;;4.97;;
68583;SDS011;55557;49.220;11.150;2023-06-26T04:39:54;8.43;;;5.50;;
68583;SDS011;55557;49.220;11.150;2023-06-26T04:42:20;9.83;;;5.30;;
68583;SDS011;55557;49.220;11.150;2023-06-26T04:44:46;9.10;;;5.10;;
68583;SDS011;55557;49.220;11.150;2023-06-26T04:47:12;7.37;;;5.47;;
68583;SDS011;55557;49.220;11.150;2023-06-26T04:49:40;7.40;;;5.37;;
68583;SDS011;55557;49.220;11.150;2023-06-26T04:52:10;7.03;;;5.37;;
68583;SDS011;55557;49.220;11.150;2023-06-26T04:54:38;8.00;;;5.10;;
68583;SDS011;55557;49.220;11.150;2023-06-26T04:57:04;7.83;;;5.53;;
68583;SDS011;55557;49.220;11.150;2023-06-26T04:59:31;16.27;;;5.20;;
68583;SDS011;55557;49.220;11.150;2023-06-26T05:01:57;8.27;;;5.50;;
68583;SDS011;55557;49.220;11.150;2023-06-26T05:04:23;6.83;;;4.73;;
68583;SDS011;55557;49.220;11.150;2023-06-26T05:06:49;6.40;;;4.77;;
68583;SDS011;55557;49.220;11.150;2023-06-26T05:09:15;7.10;;;5.23;;
68583;SDS011;55557;49.220;11.150;2023-06-26T05:11:42;7.50;;;5.70;;
68583;SDS011;55557;49.220;11.150;2023-06-26T05:14:08;8.40;;;5.73;;
68583;SDS011;55557;49.220;11.150;2023-06-26T05:16:34;12.57;;;5.33;;
68583;SDS011;55557;49.220;11.150;2023-06-26T05:19:01;7.70;;;5.47;;
68583;SDS011;55557;49.220;11.150;2023-06-26T05:21:27;11.87;;;5.77;;
68583;SDS011;55557;49.220;11.150;2023-06-26T05:23:55;9.37;;;5.90;;
68583;SDS011;55557;49.220;11.150;2023-06-26T05:26:22;7.40;;;5.50;;
68583;SDS011;55557;49.220;11.150;2023-06-26T05:28:48;9.57;;;6.13;;
68583;SDS011;55557;49.220;11.150;2023-06-26T05:31:15;7.37;;;5.33;;
68583;SDS011;55557;49.220;11.150;2023-06-26T05:33:42;8.67;;;5.30;;
68583;SDS011;55557;49.220;11.150;2023-06-26T05:36:10;8.27;;;5.03;;
68583;SDS011;55557;49.220;11.150;2023-06-26T05:38:38;9.77;;;5.47;;
68583;SDS011;55557;49.220;11.150;2023-06-26T05:41:05;7.87;;;5.67;;
68583;SDS011;55557;49.220;11.150;2023-06-26T05:43:31;8.23;;;5.20;;
68583;SDS011;55557;49.220;11.150;2023-06-26T05:45:57;7.27;;;5.47;;
68583;SDS011;55557;49.220;11.150;2023-06-26T05:48:23;9.37;;;5.10;;
68583;SDS011;55557;49.220;11.150;2023-06-26T05:50:49;7.88;;;5.15;;
68583;SDS011;55557;49.220;11.150;2023-06-26T05:53:15;6.57;;;4.53;;
68583;SDS011;55557;49.220;11.150;2023-06-26T05:55:41;7.23;;;4.67;;
68583;SDS011;55557;49.220;11.150;2023-06-26T05:58:09;6.33;;;4.60;;
68583;SDS011;55557;49.220;11.150;2023-06-26T06:00:37;7.20;;;4.93;;
68583;SDS011;55557;49.220;11.150;2023-06-26T06:03:03;7.70;;;4.47;;
68583;SDS011;55557;49.220;11.150;2023-06-26T06:05:29;6.73;;;4.70;;
68583;SDS011;55557;49.220;11.150;2023-06-26T06:07:55;6.17;;;4.17;;
68583;SDS011;55557;49.220;11.150;2023-06-26T06:10:21;7.20;;;5.27;;
68583;SDS011;55557;49.220;11.150;2023-06-26T06:12:47;7.97;;;4.67;;
68583;SDS011;55557;49.220;11.150;2023-06-26T06:15:23;9.80;;;5.13;;
68583;SDS011;55557;49.220;11.150;2023-06-26T06:17:49;5.60;;;4.10;;
68583;SDS011;55557;49.220;11.150;2023-06-26T06:20:15;8.23;;;5.13;;
68583;SDS011;55557;49.220;11.150;2023-06-26T06:22:41;7.53;;;4.90;;
68583;SDS011;55557;49.220;11.150;2023-06-26T06:25:07;6.13;;;4.40;;
68583;SDS011;55557;49.220;11.150;2023-06-26T06:27:33;6.90;;;4.50;;
68583;SDS011;55557;49.220;11.150;2023-06-26T06:29:59;7.47;;;4.80;;
68583;SDS011;55557;49.220;11.150;2023-06-26T06:32:25;6.43;;;4.57;;
68583;SDS011;55557;49.220;11.150;2023-06-26T06:34:52;8.53;;;4.63;;
68583;SDS011;55557;49.220;11.150;2023-06-26T06:37:18;9.23;;;5.10;;
68583;SDS011;55557;49.220;11.150;2023-06-26T06:39:44;6.10;;;4.30;;
68583;SDS011;55557;49.220;11.150;2023-06-26T06:42:10;6.07;;;4.63;;
68583;SDS011;55557;49.220;11.150;2023-06-26T06:44:36;8.03;;;4.83;;
68583;SDS011;55557;49.220;11.150;2023-06-26T06:47:02;7.20;;;5.20;;
68583;SDS011;55557;49.220;11.150;2023-06-26T06:49:28;7.40;;;4.70;;
68583;SDS011;55557;49.220;11.150;2023-06-26T06:51:54;8.40;;;5.00;;
68583;SDS011;55557;49.220;11.150;2023-06-26T06:54:20;10.60;;;5.20;;
68583;SDS011;55557;49.220;11.150;2023-06-26T06:56:46;5.20;;;3.93;;
68583;SDS011;55557;49.220;11.150;2023-06-26T06:59:12;7.90;;;4.57;;
68583;SDS011;55557;49.220;11.150;2023-06-26T07:01:39;5.67;;;4.43;;
68583;SDS011;55557;49.220;11.150;2023-06-26T07:04:05;8.53;;;5.03;;
68583;SDS011;55557;49.220;11.150;2023-06-26T07:06:31;12.07;;;5.23;;
68583;SDS011;55557;49.220;11.150;2023-06-26T07:08:58;6.63;;;5.07;;
68583;SDS011;55557;49.220;11.150;2023-06-26T07:11:24;6.33;;;4.50;;
68583;SDS011;55557;49.220;11.150;2023-06-26T07:13:50;11.27;;;4.80;;
68583;SDS011;55557;49.220;11.150;2023-06-26T07:16:16;11.80;;;5.00;;
68583;SDS011;55557;49.220;11.150;2023-06-26T07:18:43;6.43;;;4.57;;
68583;SDS011;55557;49.220;11.150;2023-06-26T07:21:09;7.43;;;4.80;;
68583;SDS011;55557;49.220;11.150;2023-06-26T07:23:35;7.53;;;4.97;;
68583;SDS011;55557;49.220;11.150;2023-06-26T07:26:01;7.83;;;4.80;;
68583;SDS011;55557;49.220;11.150;2023-06-26T07:28:27;7.87;;;4.83;;
68583;SDS011;55557;49.220;11.150;2023-06-26T07:30:53;8.27;;;4.80;;
68583;SDS011;55557;49.220;11.150;2023-06-26T07:33:19;8.50;;;5.03;;
68583;SDS011;55557;49.220;11.150;2023-06-26T07:35:46;16.00;;;5.60;;
68583;SDS011;55557;49.220;11.150;2023-06-26T07:38:12;7.50;;;4.67;;
68583;SDS011;55557;49.220;11.150;2023-06-26T07:40:38;12.33;;;4.83;;
68583;SDS011;55557;49.220;11.150;2023-06-26T07:43:04;7.70;;;5.33;;
68583;SDS011;55557;49.220;11.150;2023-06-26T07:45:30;6.47;;;4.73;;
68583;SDS011;55557;49.220;11.150;2023-06-26T07:47:56;5.93;;;4.53;;
68583;SDS011;55557;49.220;11.150;2023-06-26T07:50:22;8.93;;;4.50;;
68583;SDS011;55557;49.220;11.150;2023-06-26T07:52:49;6.37;;;4.57;;
68583;SDS011;55557;49.220;11.150;2023-06-26T07:55:22;5.43;;;4.10;;
68583;SDS011;55557;49.220;11.150;2023-06-26T07:57:51;8.30;;;4.70;;
68583;SDS011;55557;49.220;11.150;2023-06-26T08:00:17;7.70;;;4.80;;
68583;SDS011;55557;49.220;11.150;2023-06-26T08:02:43;6.37;;;4.57;;
68583;SDS011;55557;49.220;11.150;2023-06-26T08:05:09;6.33;;;4.73;;
68583;SDS011;55557;49.220;11.150;2023-06-26T08:07:36;8.77;;;5.10;;
68583;SDS011;55557;49.220;11.150;2023-06-26T08:10:02;8.13;;;5.17;;
68583;SDS011;55557;49.220;11.150;2023-06-26T08:12:29;5.47;;;4.57;;
68583;SDS011;55557;49.220;11.150;2023-06-26T08:14:56;9.00;;;5.30;;
68583;SDS011;55557;49.220;11.150;2023-06-26T08:17:22;7.37;;;4.77;;
68583;SDS011;55557;49.220;11.150;2023-06-26T08:19:48;7.47;;;5.23;;
68583;SDS011;55557;49.220;11.150;2023-06-26T08:22:14;8.87;;;5.50;;
68583;SDS011;55557;49.220;11.150;2023-06-26T08:24:40;7.13;;;5.07;;
68583;SDS011;55557;49.220;11.150;2023-06-26T08:27:06;8.07;;;5.20;;
68583;SDS011;55557;49.220;11.150;2023-06-26T08:29:33;6.27;;;4.20;;
68583;SDS011;55557;49.220;11.150;2023-06-26T08:31:59;6.20;;;4.40;;
68583;SDS011;55557;49.220;11.150;2023-06-26T08:34:27;6.07;;;4.57;;
68583;SDS011;55557;49.220;11.150;2023-06-26T08:36:53;8.60;;;5.00;;
68583;SDS011;55557;49.220;11.150;2023-06-26T08:39:19;8.10;;;4.83;;
68583;SDS011;55557;49.220;11.150;2023-06-26T08:41:45;7.50;;;4.83;;
68583;SDS011;55557;49.220;11.150;2023-06-26T08:44:11;7.40;;;5.00;;
68583;SDS011;55557;49.220;11.150;2023-06-26T08:46:37;7.30;;;4.57;;
68583;SDS011;55557;49.220;11.150;2023-06-26T08:49:25;7.20;;;5.10;;
68583;SDS011;55557;49.220;11.150;2023-06-26T08:52:27;8.07;;;5.00;;
68583;SDS011;55557;49.220;11.150;2023-06-26T08:54:45;7.00;;;4.93;;
68583;SDS011;55557;49.220;11.150;2023-06-26T08:57:13;7.33;;;4.40;;
68583;SDS011;55557;49.220;11.150;2023-06-26T08:59:40;9.80;;;5.33;;
68583;SDS011;55557;49.220;11.150;2023-06-26T09:02:07;8.37;;;5.27;;
68583;SDS011;55557;49.220;11.150;2023-06-26T09:04:33;14.17;;;5.37;;
68583;SDS011;55557;49.220;11.150;2023-06-26T09:07:00;6.80;;;4.87;;
68583;SDS011;55557;49.220;11.150;2023-06-26T09:09:27;7.43;;;5.23;;
68583;SDS011;55557;49.220;11.150;2023-06-26T09:11:54;7.03;;;5.40;;
68583;SDS011;55557;49.220;11.150;2023-06-26T09:14:21;8.23;;;5.37;;
68583;SDS011;55557;49.220;11.150;2023-06-26T09:16:47;7.97;;;4.70;;
68583;SDS011;55557;49.220;11.150;2023-06-26T09:19:13;6.70;;;4.90;;
68583;SDS011;55557;49.220;11.150;2023-06-26T09:21:40;6.90;;;5.17;;
68583;SDS011;55557;49.220;11.150;2023-06-26T09:24:07;6.83;;;5.07;;
68583;SDS011;55557;49.220;11.150;2023-06-26T09:26:36;5.77;;;4.60;;
68583;SDS011;55557;49.220;11.150;2023-06-26T09:29:04;10.50;;;5.37;;
68583;SDS011;55557;49.220;11.150;2023-06-26T09:31:30;9.43;;;5.23;;
68583;SDS011;55557;49.220;11.150;2023-06-26T09:33:59;6.70;;;4.73;;
68583;SDS011;55557;49.220;11.150;2023-06-26T09:36:27;7.53;;;5.40;;
68583;SDS011;55557;49.220;11.150;2023-06-26T09:38:53;6.20;;;4.97;;
68583;SDS011;55557;49.220;11.150;2023-06-26T09:41:19;8.87;;;5.33;;
68583;SDS011;55557;49.220;11.150;2023-06-26T09:43:46;5.77;;;4.30;;
68583;SDS011;55557;49.220;11.150;2023-06-26T09:46:16;6.60;;;5.37;;
68583;SDS011;55557;49.220;11.150;2023-06-26T09:48:43;10.23;;;4.90;;
68583;SDS011;55557;49.220;11.150;2023-06-26T09:51:09;10.20;;;5.03;;
68583;SDS011;55557;49.220;11.150;2023-06-26T09:53:36;7.97;;;4.93;;
68583;SDS011;55557;49.220;11.150;2023-06-26T09:56:14;8.63;;;5.40;;
68583;SDS011;55557;49.220;11.150;2023-06-26T09:58:44;5.87;;;4.93;;
68583;SDS011;55557;49.220;11.150;2023-06-26T10:01:10;6.20;;;4.83;;
68583;SDS011;55557;49.220;11.150;2023-06-26T10:03:36;7.60;;;4.43;;
68583;SDS011;55557;49.220;11.150;2023-06-26T10:06:02;9.73;;;5.53;;
68583;SDS011;55557;49.220;11.150;2023-06-26T10:08:29;6.17;;;4.73;;
68583;SDS011;55557;49.220;11.150;2023-06-26T10:10:56;6.17;;;4.73;;
68583;SDS011;55557;49.220;11.150;2023-06-26T10:13:24;5.73;;;4.53;;
68583;SDS011;55557;49.220;11.150;2023-06-26T10:15:54;5.63;;;4.53;;
68583;SDS011;55557;49.220;11.150;2023-06-26T10:18:21;6.53;;;4.43;;
68583;SDS011;55557;49.220;11.150;2023-06-26T10:20:47;5.77;;;4.83;;
68583;SDS011;55557;49.220;11.150;2023-06-26T10:23:14;7.10;;;4.80;;
68583;SDS011;55557;49.220;11.150;2023-06-26T10:25:41;6.13;;;4.80;;
68583;SDS011;55557;49.220;11.150;2023-06-26T10:28:08;7.40;;;4.73;;
68583;SDS011;55557;49.220;11.150;2023-06-26T10:30:38;6.27;;;4.67;;
68583;SDS011;55557;49.220;11.150;2023-06-26T10:33:05;8.70;;;5.03;;
68583;SDS011;55557;49.220;11.150;2023-06-26T10:35:32;6.73;;;4.83;;
68583;SDS011;55557;49.220;11.150;2023-06-26T10:38:01;5.47;;;4.30;;
68583;SDS011;55557;49.220;11.150;2023-06-26T10:40:33;6.03;;;4.53;;
68583;SDS011;55557;49.220;11.150;2023-06-26T10:43:06;4.90;;;3.97;;
68583;SDS011;55557;49.220;11.150;2023-06-26T10:45:33;6.83;;;4.80;;
68583;SDS011;55557;49.220;11.150;2023-06-26T10:48:00;5.90;;;4.50;;
68583;SDS011;55557;49.220;11.150;2023-06-26T10:50:29;5.70;;;4.20;;
68583;SDS011;55557;49.220;11.150;2023-06-26T10:55:49;6.10;;;4.50;;
68583;SDS011;55557;49.220;11.150;2023-06-26T11:03:40;6.20;;;4.53;;
68583;SDS011;55557;49.220;11.150;2023-06-26T11:06:10;5.47;;;4.37;;
68583;SDS011;55557;49.220;11.150;2023-06-26T11:08:46;7.53;;;4.40;;
68583;SDS011;55557;49.220;11.150;2023-06-26T11:11:13;6.30;;;4.27;;
68583;SDS011;55557;49.220;11.150;2023-06-26T11:13:40;5.40;;;4.00;;
68583;SDS011;55557;49.220;11.150;2023-06-26T11:16:08;4.53;;;3.73;;
68583;SDS011;55557;49.220;11.150;2023-06-26T11:18:34;5.33;;;4.20;;
68583;SDS011;55557;49.220;11.150;2023-06-26T11:21:10;5.50;;;4.03;;
68583;SDS011;55557;49.220;11.150;2023-06-26T11:23:38;7.20;;;4.23;;
68583;SDS011;55557;49.220;11.150;2023-06-26T11:26:18;6.30;;;4.33;;
68583;SDS011;55557;49.220;11.150;2023-06-26T11:28:48;6.30;;;4.43;;
68583;SDS011;55557;49.220;11.150;2023-06-26T11:31:30;8.20;;;3.87;;
68583;SDS011;55557;49.220;11.150;2023-06-26T11:34:02;5.07;;;3.90;;
68583;SDS011;55557;49.220;11.150;2023-06-26T11:36:29;5.20;;;4.07;;
68583;SDS011;55557;49.220;11.150;2023-06-26T11:39:04;5.20;;;3.67;;
68583;SDS011;55557;49.220;11.150;2023-06-26T11:41:37;6.23;;;3.80;;
68583;SDS011;55557;49.220;11.150;2023-06-26T11:44:03;6.03;;;4.07;;
68583;SDS011;55557;49.220;11.150;2023-06-26T11:46:30;7.60;;;4.33;;
68583;SDS011;55557;49.220;11.150;2023-06-26T11:48:56;4.67;;;3.90;;
68583;SDS011;55557;49.220;11.150;2023-06-26T11:51:22;5.37;;;3.33;;
68583;SDS011;55557;49.220;11.150;2023-06-26T11:53:49;4.23;;;3.57;;
68583;SDS011;55557;49.220;11.150;2023-06-26T11:56:19;3.77;;;3.43;;
68583;SDS011;55557;49.220;11.150;2023-06-26T12:01:45;4.73;;;3.50;;
68583;SDS011;55557;49.220;11.150;2023-06-26T12:04:12;4.67;;;3.20;;
68583;SDS011;55557;49.220;11.150;2023-06-26T12:06:38;3.73;;;3.27;;
68583;SDS011;55557;49.220;11.150;2023-06-26T12:09:06;3.77;;;3.40;;
68583;SDS011;55557;49.220;11.150;2023-06-26T12:11:34;4.10;;;3.30;;
68583;SDS011;55557;49.220;11.150;2023-06-26T12:14:00;5.30;;;3.70;;
68583;SDS011;55557;49.220;11.150;2023-06-26T12:16:29;3.80;;;3.22;;
68583;SDS011;55557;49.220;11.150;2023-06-26T12:19:03;4.22;;;3.17;;
68583;SDS011;55557;49.220;11.150;2023-06-26T12:21:47;4.43;;;3.28;;
68583;SDS011;55557;49.220;11.150;2023-06-26T12:24:33;4.05;;;3.53;;
68583;SDS011;55557;49.220;11.150;2023-06-26T12:27:25;4.03;;;3.37;;
68583;SDS011;55557;49.220;11.150;2023-06-26T12:29:52;4.10;;;3.23;;
68583;SDS011;55557;49.220;11.150;2023-06-26T12:32:18;3.22;;;2.85;;
68583;SDS011;55557;49.220;11.150;2023-06-26T12:34:47;3.23;;;2.67;;
68583;SDS011;55557;49.220;11.150;2023-06-26T12:37:14;3.20;;;2.90;;
68583;SDS011;55557;49.220;11.150;2023-06-26T12:39:50;3.50;;;2.90;;
68583;SDS011;55557;49.220;11.150;2023-06-26T12:42:17;4.40;;;3.40;;
68583;SDS011;55557;49.220;11.150;2023-06-26T12:44:44;4.43;;;3.40;;
68583;SDS011;55557;49.220;11.150;2023-06-26T12:47:10;6.83;;;3.17;;
68583;SDS011;55557;49.220;11.150;2023-06-26T12:49:40;6.63;;;3.20;;
68583;SDS011;55557;49.220;11.150;2023-06-26T12:52:09;4.27;;;3.00;;
68583;SDS011;55557;49.220;11.150;2023-06-26T12:54:35;4.30;;;3.07;;
68583;SDS011;55557;49.220;11.150;2023-06-26T12:57:03;5.23;;;3.13;;
68583;SDS011;55557;49.220;11.150;2023-06-26T12:59:29;5.47;;;3.53;;
68583;SDS011;55557;49.220;11.150;2023-06-26T13:01:56;4.47;;;3.33;;
68583;SDS011;55557;49.220;11.150;2023-06-26T13:04:22;10.57;;;3.67;;
68583;SDS011;55557;49.220;11.150;2023-06-26T13:06:48;6.33;;;3.87;;
68583;SDS011;55557;49.220;11.150;2023-06-26T13:09:15;7.73;;;3.50;;
68583;SDS011;55557;49.220;11.150;2023-06-26T13:11:41;4.67;;;3.43;;
68583;SDS011;55557;49.220;11.150;2023-06-26T13:14:07;6.60;;;3.87;;
68583;SDS011;55557;49.220;11.150;2023-06-26T13:16:33;4.10;;;3.50;;
68583;SDS011;55557;49.220;11.150;2023-06-26T13:19:00;4.97;;;3.90;;
68583;SDS011;55557;49.220;11.150;2023-06-26T13:21:27;7.13;;;4.13;;
68583;SDS011;55557;49.220;11.150;2023-06-26T13:23:53;5.77;;;3.97;;
68583;SDS011;55557;49.220;11.150;2023-06-26T13:26:20;4.93;;;3.83;;
68583;SDS011;55557;49.220;11.150;2023-06-26T13:28:50;6.10;;;3.83;;
68583;SDS011;55557;49.220;11.150;2023-06-26T13:31:16;5.90;;;4.20;;
68583;SDS011;55557;49.220;11.150;2023-06-26T13:33:43;5.77;;;4.53;;
68583;SDS011;55557;49.220;11.150;2023-06-26T13:36:10;5.40;;;4.33;;
68583;SDS011;55557;49.220;11.150;2023-06-26T13:38:36;5.03;;;4.10;;
68583;SDS011;55557;49.220;11.150;2023-06-26T13:41:02;9.03;;;4.43;;
68583;SDS011;55557;49.220;11.150;2023-06-26T13:43:28;7.40;;;4.20;;
68583;SDS011;55557;49.220;11.150;2023-06-26T13:45:55;8.53;;;4.60;;
68583;SDS011;55557;49.220;11.150;2023-06-26T13:48:23;5.20;;;3.83;;
68583;SDS011;55557;49.220;11.150;2023-06-26T13:50:49;7.27;;;4.20;;
68583;SDS011;55557;49.220;11.150;2023-06-26T13:53:16;5.70;;;4.20;;
68583;SDS011;55557;49.220;11.150;2023-06-26T13:55:42;8.07;;;3.77;;
68583;SDS011;55557;49.220;11.150;2023-06-26T13:58:08;8.00;;;3.83;;
68583;SDS011;55557;49.220;11.150;2023-06-26T14:00:38;8.17;;;4.27;;
68583;SDS011;55557;49.220;11.150;2023-06-26T14:03:05;8.20;;;4.63;;
68583;SDS011;55557;49.220;11.150;2023-06-26T14:05:34;8.17;;;4.63;;
68583;SDS011;55557;49.220;11.150;2023-06-26T14:08:04;5.73;;;4.57;;
68583;SDS011;55557;49.220;11.150;2023-06-26T14:10:31;5.93;;;4.43;;
68583;SDS011;55557;49.220;11.150;2023-06-26T14:13:03;9.77;;;4.30;;
68583;SDS011;55557;49.220;11.150;2023-06-26T14:15:29;7.20;;;4.23;;
68583;SDS011;55557;49.220;11.150;2023-06-26T14:17:55;5.77;;;4.07;;
68583;SDS011;55557;49.220;11.150;2023-06-26T14:20:40;8.07;;;4.30;;
68583;SDS011;55557;49.220;11.150;2023-06-26T14:23:06;5.00;;;4.10;;
68583;SDS011;55557;49.220;11.150;2023-06-26T14:25:32;6.00;;;4.50;;
68583;SDS011;55557;49.220;11.150;2023-06-26T14:27:58;7.10;;;4.50;;
68583;SDS011;55557;49.220;11.150;2023-06-26T14:30:24;6.53;;;4.23;;
68583;SDS011;55557;49.220;11.150;2023-06-26T14:32:50;6.77;;;4.30;;
68583;SDS011;55557;49.220;11.150;2023-06-26T14:35:16;9.43;;;4.67;;
68583;SDS011;55557;49.220;11.150;2023-06-26T14:37:43;6.83;;;4.63;;
68583;SDS011;55557;49.220;11.150;2023-06-26T14:40:09;4.37;;;3.97;;
68583;SDS011;55557;49.220;11.150;2023-06-26T14:42:35;6.80;;;4.43;;
68583;SDS011;55557;49.220;11.150;2023-06-26T14:45:01;8.30;;;4.60;;
68583;SDS011;55557;49.220;11.150;2023-06-26T14:47:28;5.73;;;4.73;;
68583;SDS011;55557;49.220;11.150;2023-06-26T14:49:54;5.40;;;4.57;;
68583;SDS011;55557;49.220;11.150;2023-06-26T14:52:20;5.63;;;4.67;;
68583;SDS011;55557;49.220;11.150;2023-06-26T14:54:46;5.30;;;4.30;;
68583;SDS011;55557;49.220;11.150;2023-06-26T14:57:12;6.57;;;4.77;;